Time;durP1;ratioP1;P1;durP2;ratioP2;P2;SDS_P1;SDS_P2;PMS_P1;PMS_P2;Temp;Humidity;BMP_temperature;BMP_pressure;BME280_temperature;BME280_humidity;BME280_pressure;Samples;Min_cycle;Max_cycle;Signal;HPM_P1;HPM_P2
2022/04/27 00:01:18;;;;;;;16.35;14.82;;;9.70;99.90;;;;;;5052817;28;20196;-60
2022/04/27 00:03:46;;;;;;;16.85;14.60;;;9.80;99.90;;;;;;5052341;28;20564;-60
2022/04/27 00:06:14;;;;;;;16.45;14.88;;;9.80;99.90;;;;;;5052719;28;20207;-60
2022/04/27 00:08:42;;;;;;;16.63;15.10;;;9.80;99.90;;;;;;5052874;28;20199;-60
2022/04/27 00:11:11;;;;;;;16.15;14.75;;;9.60;99.90;;;;;;5052173;28;20219;-59
2022/04/27 00:13:39;;;;;;;16.50;15.00;;;9.70;99.90;;;;;;5050835;28;20290;-59
2022/04/27 00:16:07;;;;;;;14.38;13.10;;;9.60;99.90;;;;;;5052862;28;20199;-60
2022/04/27 00:18:35;;;;;;;16.77;15.18;;;9.70;99.90;;;;;;5054125;28;20199;-60
2022/04/27 00:21:03;;;;;;;17.42;15.93;;;9.70;99.90;;;;;;5052807;28;20259;-59
2022/04/27 00:23:32;;;;;;;15.23;13.93;;;9.60;99.90;;;;;;5053320;28;20223;-60
2022/04/27 00:26:00;;;;;;;16.35;14.75;;;9.60;99.90;;;;;;5054106;28;20649;-60
2022/04/27 00:28:29;;;;;;;14.90;13.60;;;9.70;99.90;;;;;;5053733;28;20235;-59
2022/04/27 00:30:57;;;;;;;16.27;14.68;;;9.70;99.90;;;;;;5056904;28;20231;-59
2022/04/27 00:33:25;;;;;;;15.88;14.52;;;9.70;99.90;;;;;;5052693;28;20263;-60
2022/04/27 00:35:53;;;;;;;17.58;15.88;;;9.70;99.90;;;;;;5053278;28;20222;-60
2022/04/27 00:38:21;;;;;;;15.60;14.10;;;9.70;99.90;;;;;;5052955;28;20245;-60
2022/04/27 00:40:49;;;;;;;16.25;14.75;;;9.50;99.90;;;;;;5052576;28;20291;-60
2022/04/27 00:43:34;;;;;;;17.70;16.20;;;9.60;99.90;;;;;;5051758;28;20216;-60
2022/04/27 00:46:03;;;;;;;18.25;16.60;;;9.40;99.90;;;;;;5052833;28;20258;-60
2022/04/27 00:48:31;;;;;;;18.48;16.77;;;9.30;99.90;;;;;;5053117;28;20629;-60
2022/04/27 00:51:02;;;;;;;17.73;16.13;;;9.30;99.90;;;;;;5052406;28;20203;-60
2022/04/27 00:53:30;;;;;;;17.80;16.20;;;9.20;99.90;;;;;;5051628;28;20658;-60
2022/04/27 00:55:59;;;;;;;18.02;16.10;;;9.20;99.90;;;;;;5051874;28;20219;-60
2022/04/27 00:58:28;;;;;;;19.48;17.48;;;9.20;99.90;;;;;;5052264;28;20207;-60
2022/04/27 01:01:17;;;;;;;17.90;16.30;;;9.30;99.90;;;;;;5052109;28;20212;-61
2022/04/27 01:03:45;;;;;;;18.90;17.00;;;9.20;99.90;;;;;;5051352;28;20242;-61
2022/04/27 01:06:15;;;;;;;21.58;19.48;;;9.20;99.90;;;;;;5051935;28;20862;-61
2022/04/27 01:08:43;;;;;;;21.92;19.65;;;9.10;99.90;;;;;;5051792;28;20208;-61
2022/04/27 01:11:11;;;;;;;18.20;16.52;;;9.00;99.90;;;;;;5050878;28;20673;-61
2022/04/27 01:13:39;;;;;;;17.42;15.95;;;9.10;99.90;;;;;;5050737;28;20323;-61
2022/04/27 01:16:08;;;;;;;22.48;17.70;;;9.10;99.90;;;;;;5051767;28;20228;-61
2022/04/27 01:18:37;;;;;;;17.50;15.95;;;9.10;99.90;;;;;;5051632;28;20204;-61
2022/04/27 01:21:06;;;;;;;17.38;15.77;;;9.10;99.90;;;;;;5051344;28;20231;-60
2022/04/27 01:23:34;;;;;;;18.25;16.45;;;9.10;99.90;;;;;;5050705;28;20247;-61
2022/04/27 01:26:05;;;;;;;20.17;16.63;;;9.20;99.90;;;;;;5051441;28;20299;-60
2022/04/27 01:28:35;;;;;;;16.20;14.70;;;9.20;99.90;;;;;;5051693;28;20323;-60
2022/04/27 01:31:05;;;;;;;17.90;16.10;;;9.20;99.90;;;;;;5053006;28;20195;-60
2022/04/27 01:33:34;;;;;;;18.30;16.50;;;9.10;99.90;;;;;;5044270;28;20224;-61
2022/04/27 01:36:03;;;;;;;17.10;15.63;;;9.10;99.90;;;;;;5045851;28;20234;-60
2022/04/27 01:38:36;;;;;;;18.17;16.48;;;9.20;99.90;;;;;;5051949;28;20316;-61
2022/04/27 01:41:04;;;;;;;19.77;17.98;;;9.20;99.90;;;;;;5050278;28;20610;-61
2022/04/27 01:43:33;;;;;;;16.70;15.20;;;9.10;99.90;;;;;;5050744;28;20224;-60
2022/04/27 01:46:01;;;;;;;16.85;15.45;;;9.10;99.90;;;;;;5051407;28;20300;-61
2022/04/27 01:48:29;;;;;;;18.20;16.40;;;9.20;99.90;;;;;;5050343;28;20265;-60
2022/04/27 01:50:57;;;;;;;15.40;14.10;;;9.10;99.90;;;;;;5051212;28;20212;-60
2022/04/27 01:56:11;;;;;;;17.40;15.68;;;9.10;99.90;;;;;;5050999;28;20620;-61
2022/04/27 01:58:39;;;;;;;18.90;17.08;;;9.10;99.90;;;;;;5051103;28;20575;-60
2022/04/27 02:01:10;;;;;;;18.35;16.65;;;9.00;99.90;;;;;;5050631;28;20258;-62
2022/04/27 02:03:39;;;;;;;18.55;16.85;;;9.10;99.90;;;;;;5049664;28;20314;-62
2022/04/27 02:06:08;;;;;;;16.20;14.80;;;9.00;99.90;;;;;;5050510;28;20242;-61
2022/04/27 02:08:36;;;;;;;19.88;18.02;;;9.10;99.90;;;;;;5051169;28;20613;-61
2022/04/27 02:11:04;;;;;;;17.98;16.25;;;9.10;99.90;;;;;;5050303;28;20277;-61
2022/04/27 02:13:33;;;;;;;16.50;15.05;;;9.20;99.90;;;;;;5049872;28;20686;-60
2022/04/27 02:16:01;;;;;;;17.75;16.25;;;9.20;99.90;;;;;;5051061;28;20212;-61
2022/04/27 02:18:29;;;;;;;19.48;17.67;;;9.30;99.90;;;;;;5050221;28;20661;-62
2022/04/27 02:20:57;;;;;;;17.40;15.80;;;9.20;99.90;;;;;;5049081;28;20246;-61
2022/04/27 02:23:25;;;;;;;19.15;17.35;;;9.20;99.90;;;;;;5049782;28;20776;-60
2022/04/27 02:25:55;;;;;;;17.23;15.57;;;9.20;99.90;;;;;;5050430;28;20212;-60
2022/04/27 02:28:23;;;;;;;17.60;16.00;;;9.30;99.90;;;;;;5050800;28;20208;-60
2022/04/27 02:30:53;;;;;;;15.85;14.45;;;9.40;99.90;;;;;;5053656;28;20258;-60
2022/04/27 02:33:20;;;;;;;18.45;16.90;;;9.40;99.90;;;;;;5049527;28;20230;-61
2022/04/27 02:35:49;;;;;;;19.00;17.15;;;9.30;99.90;;;;;;5050557;28;20261;-61
2022/04/27 02:38:18;;;;;;;18.08;16.35;;;9.10;99.90;;;;;;5050599;28;20291;-61
2022/04/27 02:40:46;;;;;;;19.02;17.23;;;9.20;99.90;;;;;;5050039;28;20204;-60
2022/04/27 02:43:14;;;;;;;17.55;16.05;;;9.30;99.90;;;;;;5047745;28;20307;-61
2022/04/27 02:45:42;;;;;;;17.42;15.70;;;9.30;99.90;;;;;;5050380;28;20200;-60
2022/04/27 02:48:11;;;;;;;15.73;14.35;;;9.30;99.90;;;;;;5048171;28;20234;-61
2022/04/27 02:53:24;;;;;;;14.98;13.45;;;9.30;99.90;;;;;;5048513;28;20227;-60
2022/04/27 02:55:52;;;;;;;16.88;15.35;;;9.30;99.90;;;;;;5054118;28;20231;-60
2022/04/27 02:58:21;;;;;;;17.00;15.40;;;9.20;99.90;;;;;;5054116;28;20619;-60
2022/04/27 03:00:48;;;;;;;17.73;16.13;;;9.10;99.90;;;;;;5053906;28;20199;-60
2022/04/27 03:03:18;;;;;;;16.40;14.90;;;9.10;99.90;;;;;;5053516;28;20274;-61
2022/04/27 03:05:46;;;;;;;17.42;15.60;;;9.10;99.90;;;;;;5054128;28;20629;-60
2022/04/27 03:08:14;;;;;;;15.07;13.70;;;9.00;99.90;;;;;;5054241;28;20298;-61
2022/04/27 03:10:42;;;;;;;17.92;16.33;;;9.00;99.90;;;;;;5053620;28;20208;-60
2022/04/27 03:13:10;;;;;;;16.73;15.32;;;8.90;99.90;;;;;;5052907;28;20799;-61
2022/04/27 03:15:37;;;;;;;17.38;15.73;;;8.90;99.90;;;;;;5053740;28;20319;-61
2022/04/27 03:18:20;;;;;;;16.15;14.65;;;8.90;99.90;;;;;;5053873;28;20208;-61
2022/04/27 03:20:50;;;;;;;19.67;17.65;;;8.90;99.90;;;;;;5053983;28;20208;-60
2022/04/27 03:23:18;;;;;;;19.67;17.88;;;8.90;99.90;;;;;;5052930;28;20224;-60
2022/04/27 03:25:46;;;;;;;19.80;17.90;;;8.80;99.90;;;;;;5053652;28;20207;-61
2022/04/27 03:28:14;;;;;;;22.50;20.52;;;8.80;99.90;;;;;;5053929;28;20244;-60
2022/04/27 03:30:42;;;;;;;22.55;20.20;;;8.80;99.90;;;;;;5054951;28;20227;-61
2022/04/27 03:33:10;;;;;;;20.20;18.40;;;8.80;99.90;;;;;;5052756;28;20224;-60
2022/04/27 03:35:38;;;;;;;20.88;19.02;;;8.70;99.90;;;;;;5053616;28;20736;-60
2022/04/27 03:38:08;;;;;;;20.90;18.90;;;8.70;99.90;;;;;;5053690;28;20298;-59
2022/04/27 03:40:36;;;;;;;21.20;19.25;;;8.70;99.90;;;;;;5053683;28;20208;-60
2022/04/27 03:43:05;;;;;;;21.00;19.10;;;8.70;99.90;;;;;;5051504;28;20219;-60
2022/04/27 03:45:32;;;;;;;18.27;16.58;;;8.70;99.90;;;;;;5053056;28;20239;-61
2022/04/27 03:48:02;;;;;;;18.08;16.27;;;8.80;99.90;;;;;;5053343;28;20238;-60
2022/04/27 03:50:30;;;;;;;18.60;16.90;;;8.80;99.90;;;;;;5053273;28;20234;-60
2022/04/27 03:52:59;;;;;;;17.73;16.20;;;8.80;99.90;;;;;;5052265;28;20253;-60
2022/04/27 03:55:33;;;;;;;17.45;16.00;;;8.80;99.90;;;;;;5053041;28;20736;-60
2022/04/27 03:58:02;;;;;;;18.05;16.55;;;8.80;99.90;;;;;;5053351;28;20290;-60
2022/04/27 04:00:29;;;;;;;17.92;16.33;;;8.80;99.90;;;;;;5046576;28;20230;-60
2022/04/27 04:02:59;;;;;;;17.05;15.57;;;8.70;99.90;;;;;;5067996;22;20266;-61
2022/04/27 04:05:28;;;;;;;18.52;16.95;;;8.70;99.90;;;;;;5067528;28;20207;-62
2022/04/27 04:07:56;;;;;;;16.80;15.27;;;8.70;99.90;;;;;;5073170;28;20286;-62
2022/04/27 04:10:24;;;;;;;19.17;17.38;;;8.70;99.90;;;;;;5072706;28;20299;-61
2022/04/27 04:12:53;;;;;;;19.65;17.95;;;8.60;99.90;;;;;;5064419;28;20277;-62
2022/04/27 04:15:21;;;;;;;18.25;16.70;;;8.60;99.90;;;;;;5052019;28;20220;-61
2022/04/27 04:17:49;;;;;;;20.23;18.42;;;8.50;99.90;;;;;;5052901;28;20291;-61
2022/04/27 04:20:18;;;;;;;22.27;20.35;;;8.60;99.90;;;;;;5052635;28;20238;-62
2022/04/27 04:22:47;;;;;;;22.95;20.85;;;8.50;99.90;;;;;;5051599;28;20752;-61
2022/04/27 04:30:47;;;;;;;23.25;20.85;;;8.50;99.90;;;;;;5053732;28;20606;-60
2022/04/27 04:33:15;;;;;;;24.08;21.98;;;8.50;99.90;;;;;;5051333;28;20731;-61
2022/04/27 04:35:43;;;;;;;22.05;20.08;;;8.60;99.90;;;;;;5052767;28;20254;-61
2022/04/27 04:38:11;;;;;;;22.70;20.50;;;8.70;99.90;;;;;;5052560;28;20708;-60
2022/04/27 04:40:39;;;;;;;23.35;21.25;;;8.70;99.90;;;;;;5045942;28;20203;-61
2022/04/27 04:43:08;;;;;;;22.75;20.70;;;8.70;99.90;;;;;;5035448;28;20326;-62
2022/04/27 04:45:36;;;;;;;25.92;23.63;;;8.80;99.90;;;;;;5036067;28;20745;-62
2022/04/27 04:48:04;;;;;;;28.48;25.95;;;8.80;99.90;;;;;;5038272;28;20590;-62
2022/04/27 04:50:32;;;;;;;25.80;23.20;;;8.70;99.90;;;;;;5037838;28;20212;-62
2022/04/27 04:53:00;;;;;;;26.92;24.30;;;8.60;99.90;;;;;;5038875;28;20703;-62
2022/04/27 04:55:29;;;;;;;25.88;23.58;;;8.70;99.90;;;;;;5038687;28;20232;-62
2022/04/27 04:57:57;;;;;;;24.83;22.52;;;8.60;99.90;;;;;;5040827;28;20261;-62
2022/04/27 05:00:26;;;;;;;26.60;24.20;;;8.60;99.90;;;;;;5036563;28;20247;-62
2022/04/27 05:02:54;;;;;;;26.40;24.08;;;8.60;99.90;;;;;;5039399;28;20242;-61
2022/04/27 05:05:22;;;;;;;25.73;23.48;;;8.60;99.90;;;;;;5038918;28;21086;-62
2022/04/27 05:07:50;;;;;;;24.27;22.08;;;8.60;99.90;;;;;;5040988;28;20210;-63
2022/04/27 05:10:18;;;;;;;26.30;24.00;;;8.60;99.90;;;;;;5037933;28;20208;-62
2022/04/27 05:12:46;;;;;;;24.25;21.95;;;8.70;99.90;;;;;;5034266;28;20655;-62
2022/04/27 05:15:14;;;;;;;25.27;23.00;;;8.80;99.90;;;;;;5038813;28;20289;-61
2022/04/27 05:17:43;;;;;;;24.02;21.95;;;8.90;99.90;;;;;;5039355;28;20811;-61
2022/04/27 05:20:12;;;;;;;23.15;21.15;;;9.00;99.90;;;;;;5038337;28;20223;-62
2022/04/27 05:22:40;;;;;;;26.55;24.15;;;9.10;99.90;;;;;;5036192;28;20255;-61
2022/04/27 05:25:10;;;;;;;22.70;20.70;;;9.10;99.90;;;;;;5038572;28;20198;-63
2022/04/27 05:27:38;;;;;;;24.75;22.27;;;9.20;99.90;;;;;;5037590;28;20204;-62
2022/04/27 05:32:55;;;;;;;23.02;21.02;;;9.50;99.90;;;;;;5037979;28;20324;-62
2022/04/27 05:35:23;;;;;;;25.38;23.05;;;9.60;99.90;;;;;;5038215;28;20240;-62
2022/04/27 05:37:51;;;;;;;24.98;22.73;;;9.70;99.90;;;;;;5037753;28;20298;-61
2022/04/27 05:40:19;;;;;;;23.58;21.48;;;9.80;99.90;;;;;;5032190;28;20319;-63
2022/04/27 05:42:48;;;;;;;21.23;19.33;;;9.70;99.90;;;;;;5034157;28;20285;-64
2022/04/27 05:45:16;;;;;;;25.35;22.90;;;9.80;99.90;;;;;;5037437;28;20257;-63
2022/04/27 05:47:44;;;;;;;23.90;21.63;;;9.90;99.90;;;;;;5035945;28;20211;-64
2022/04/27 05:50:13;;;;;;;24.92;22.58;;;9.80;99.90;;;;;;5034316;28;20295;-63
2022/04/27 05:52:52;;;;;;;22.38;20.35;;;9.80;99.90;;;;;;5032088;28;20322;-63
2022/04/27 05:55:20;;;;;;;21.85;20.05;;;10.00;99.90;;;;;;5035901;28;20220;-62
2022/04/27 05:57:48;;;;;;;20.73;18.83;;;10.10;99.90;;;;;;5038570;28;20253;-62
2022/04/27 06:00:17;;;;;;;21.20;19.05;;;10.40;99.90;;;;;;5036579;28;20226;-62
2022/04/27 06:02:45;;;;;;;22.10;19.00;;;10.50;99.90;;;;;;5036445;28;20275;-63
2022/04/27 06:05:14;;;;;;;20.85;17.40;;;10.50;99.90;;;;;;5035249;28;20211;-65
2022/04/27 06:07:42;;;;;;;21.13;19.02;;;10.60;99.90;;;;;;5042822;28;20570;-63
2022/04/27 06:10:11;;;;;;;19.40;17.60;;;10.80;99.90;;;;;;5050637;28;20617;-62
2022/04/27 06:12:46;;;;;;;18.80;17.10;;;10.90;99.90;;;;;;5049315;28;20227;-63
2022/04/27 06:15:15;;;;;;;18.75;16.92;;;11.00;99.90;;;;;;5044618;28;20676;-62
2022/04/27 06:17:49;;;;;;;19.45;17.58;;;11.10;99.90;;;;;;5050758;28;20286;-63
2022/04/27 06:20:19;;;;;;;18.30;16.30;;;11.30;99.90;;;;;;5049523;28;20275;-63
2022/04/27 06:22:47;;;;;;;20.70;18.85;;;11.50;99.90;;;;;;5048209;28;20285;-64
2022/04/27 06:25:15;;;;;;;20.50;18.65;;;11.60;99.90;;;;;;5050450;28;20284;-63
2022/04/27 06:27:43;;;;;;;22.15;20.15;;;11.50;99.90;;;;;;5052538;28;20649;-63
2022/04/27 06:30:12;;;;;;;25.15;18.85;;;11.40;99.90;;;;;;5055042;28;20580;-62
2022/04/27 06:32:40;;;;;;;22.40;20.48;;;11.40;99.90;;;;;;5053896;28;20227;-66
2022/04/27 06:35:13;;;;;;;21.23;19.33;;;11.40;99.90;;;;;;5054614;28;20251;-66
2022/04/27 06:37:42;;;;;;;21.25;19.35;;;11.30;99.90;;;;;;5054606;28;20595;-64
2022/04/27 06:40:11;;;;;;;22.15;20.27;;;11.40;99.90;;;;;;5054557;28;20219;-66
2022/04/27 06:42:42;;;;;;;23.83;21.55;;;11.50;99.90;;;;;;5053548;28;20219;-65
2022/04/27 06:45:11;;;;;;;21.60;19.48;;;11.50;99.90;;;;;;5054560;28;20690;-65
2022/04/27 06:47:39;;;;;;;21.20;19.40;;;11.60;99.90;;;;;;5054509;28;20210;-65
2022/04/27 06:50:11;;;;;;;21.63;19.58;;;11.60;99.90;;;;;;5054669;28;20203;-67
2022/04/27 06:52:45;;;;;;;21.75;19.73;;;11.60;99.90;;;;;;5053438;28;20220;-63
2022/04/27 06:55:14;;;;;;;19.98;18.13;;;11.60;99.90;;;;;;5054011;28;20230;-63
2022/04/27 06:57:42;;;;;;;21.45;19.60;;;11.60;99.90;;;;;;5054115;28;20203;-63
2022/04/27 07:00:12;;;;;;;22.00;20.08;;;11.70;99.90;;;;;;5054255;28;20195;-63
2022/04/27 07:02:40;;;;;;;19.73;18.00;;;11.60;99.90;;;;;;5053063;28;20284;-64
2022/04/27 07:05:16;;;;;;;22.60;20.60;;;11.70;99.90;;;;;;5054052;28;20265;-63
2022/04/27 07:07:45;;;;;;;24.95;22.02;;;11.70;99.90;;;;;;5047881;28;20230;-62
2022/04/27 07:10:14;;;;;;;23.30;21.00;;;11.90;99.90;;;;;;5047602;28;20564;-63
2022/04/27 07:12:43;;;;;;;19.92;18.02;;;11.90;99.90;;;;;;5049923;28;20596;-63
2022/04/27 07:15:11;;;;;;;21.30;19.17;;;12.00;99.90;;;;;;5047825;28;20226;-64
2022/04/27 07:17:39;;;;;;;19.83;18.17;;;12.00;99.90;;;;;;5054007;28;20567;-63
2022/04/27 07:20:08;;;;;;;20.85;18.98;;;12.10;99.90;;;;;;5053830;28;20290;-64
2022/04/27 07:22:37;;;;;;;20.20;18.30;;;12.40;99.90;;;;;;5053119;28;20224;-63
2022/04/27 07:25:07;;;;;;;21.88;19.73;;;12.50;99.90;;;;;;5053716;28;20645;-63
2022/04/27 07:27:36;;;;;;;18.90;17.30;;;12.50;99.90;;;;;;5053710;28;20208;-63
2022/04/27 07:30:05;;;;;;;20.13;18.23;;;12.60;99.90;;;;;;5054240;28;20192;-64
2022/04/27 07:32:33;;;;;;;19.75;17.95;;;12.70;99.90;;;;;;5052674;28;20566;-63
2022/04/27 07:35:01;;;;;;;19.92;17.83;;;12.80;99.90;;;;;;5053587;28;20208;-64
2022/04/27 07:37:30;;;;;;;18.77;17.13;;;12.90;99.90;;;;;;5053594;28;20239;-64
2022/04/27 07:39:58;;;;;;;17.27;15.60;;;12.90;99.90;;;;;;5052117;28;20208;-63
2022/04/27 07:42:27;;;;;;;17.90;16.20;;;12.90;99.90;;;;;;5052336;28;20311;-64
2022/04/27 07:44:55;;;;;;;17.65;15.95;;;13.00;99.90;;;;;;5052947;28;20192;-63
2022/04/27 07:47:23;;;;;;;17.05;15.55;;;13.30;99.90;;;;;;5053679;28;20215;-64
2022/04/27 07:49:51;;;;;;;17.65;15.93;;;13.40;99.90;;;;;;5053454;28;20199;-64
2022/04/27 07:52:19;;;;;;;19.30;17.67;;;13.50;99.90;;;;;;5052531;28;20282;-64
2022/04/27 07:54:48;;;;;;;17.75;16.25;;;13.40;99.90;;;;;;5053095;28;20215;-63
2022/04/27 07:57:16;;;;;;;19.98;18.17;;;13.50;99.90;;;;;;5052958;28;20222;-63
2022/04/27 07:59:45;;;;;;;18.27;16.33;;;13.70;99.90;;;;;;5053127;28;20200;-62
2022/04/27 08:02:13;;;;;;;18.42;16.25;;;13.80;99.90;;;;;;5052059;28;20231;-64
2022/04/27 08:04:41;;;;;;;17.38;15.93;;;13.80;99.90;;;;;;5052883;28;20219;-64
2022/04/27 08:07:09;;;;;;;18.00;16.23;;;13.90;99.90;;;;;;5052969;28;20188;-63
2022/04/27 08:09:37;;;;;;;17.83;16.23;;;14.10;99.90;;;;;;5052877;28;20547;-63
2022/04/27 08:12:06;;;;;;;17.58;15.98;;;14.10;99.90;;;;;;5051483;28;20235;-63
2022/04/27 08:14:35;;;;;;;17.13;15.73;;;14.20;99.90;;;;;;5052559;28;20200;-63
2022/04/27 08:17:05;;;;;;;17.92;16.30;;;14.40;99.90;;;;;;5052863;28;20602;-64
2022/04/27 08:19:33;;;;;;;17.15;15.57;;;14.30;99.90;;;;;;5052966;28;20469;-63
2022/04/27 08:22:02;;;;;;;15.88;14.48;;;14.30;99.90;;;;;;5052130;28;20210;-63
2022/04/27 08:24:31;;;;;;;15.77;14.38;;;14.40;99.90;;;;;;5052303;28;20307;-63
2022/04/27 08:26:59;;;;;;;17.33;15.85;;;14.30;99.90;;;;;;5052488;28;20200;-63
2022/04/27 08:29:27;;;;;;;16.83;15.35;;;14.30;99.90;;;;;;5052702;28;20215;-63
2022/04/27 08:31:55;;;;;;;16.30;14.75;;;14.30;99.90;;;;;;5052483;28;20269;-61
2022/04/27 08:34:26;;;;;;;17.42;15.82;;;14.40;99.90;;;;;;5052179;28;20211;-63
2022/04/27 08:36:54;;;;;;;15.52;13.98;;;14.50;99.90;;;;;;5052327;28;20216;-63
2022/04/27 08:39:22;;;;;;;15.45;14.13;;;14.60;99.90;;;;;;5052421;28;20200;-64
2022/04/27 08:41:50;;;;;;;14.43;13.23;;;14.70;99.90;;;;;;5049987;28;20243;-63
2022/04/27 08:44:18;;;;;;;15.65;14.45;;;14.90;99.90;;;;;;5051069;28;20204;-63
2022/04/27 08:46:46;;;;;;;16.38;14.88;;;15.10;99.90;;;;;;5052276;28;20196;-63
2022/04/27 08:49:15;;;;;;;15.90;14.30;;;15.30;99.90;;;;;;5052402;28;20204;-63
2022/04/27 08:51:44;;;;;;;16.02;14.50;;;15.60;99.90;;;;;;5051808;28;20679;-63
2022/04/27 08:54:17;;;;;;;15.07;13.68;;;15.80;99.90;;;;;;5051433;28;20196;-64
2022/04/27 08:56:45;;;;;;;15.27;14.00;;;16.10;99.90;;;;;;5046054;28;20212;-63
2022/04/27 08:59:13;;;;;;;15.18;13.73;;;16.40;99.90;;;;;;5051981;28;20211;-63
2022/04/27 09:01:41;;;;;;;15.43;13.63;;;16.50;99.90;;;;;;5051607;28;20621;-63
2022/04/27 09:04:14;;;;;;;16.38;14.23;;;16.30;99.90;;;;;;5050930;28;20704;-64
2022/04/27 09:06:46;;;;;;;15.07;13.77;;;16.60;99.90;;;;;;5051927;28;20204;-63
2022/04/27 09:09:36;;;;;;;14.85;12.35;;;16.60;99.90;;;;;;5052253;28;20207;-62
2022/04/27 09:12:08;;;;;;;13.60;12.20;;;16.60;99.90;;;;;;5051120;28;20196;-63
2022/04/27 09:14:37;;;;;;;15.02;13.70;;;16.80;99.90;;;;;;5051493;28;20199;-63
2022/04/27 09:23:02;;;;;;;11.57;10.65;;;16.50;99.90;;;;;;5050947;28;20224;-64
2022/04/27 09:25:32;;;;;;;13.32;12.23;;;16.60;99.90;;;;;;5051200;28;20204;-63
2022/04/27 09:28:23;;;;;;;13.07;11.65;;;16.70;99.90;;;;;;5051713;28;20278;-63
2022/04/27 09:30:52;;;;;;;14.00;12.52;;;16.80;99.90;;;;;;5051563;28;20203;-63
2022/04/27 09:33:34;;;;;;;15.27;13.05;;;17.00;99.90;;;;;;5050726;28;20601;-63
2022/04/27 09:36:05;;;;;;;13.02;11.63;;;17.10;99.90;;;;;;5051353;28;20199;-63
2022/04/27 09:38:41;;;;;;;13.35;12.05;;;17.40;99.90;;;;;;5051378;28;20218;-63
2022/04/27 09:41:10;;;;;;;13.23;12.13;;;17.60;99.90;;;;;;5054760;28;20203;-63
2022/04/27 09:43:42;;;;;;;10.77;9.98;;;17.60;99.90;;;;;;5050269;28;20566;-63
2022/04/27 09:46:22;;;;;;;12.52;11.43;;;17.40;99.90;;;;;;5046279;28;20257;-63
2022/04/27 09:49:09;;;;;;;12.95;11.18;;;17.50;99.90;;;;;;5051207;28;20643;-63
2022/04/27 09:51:57;;;;;;;12.23;10.93;;;17.70;99.90;;;;;;5050862;28;20200;-63
2022/04/27 09:54:29;;;;;;;12.13;10.80;;;18.10;99.90;;;;;;5050938;28;20200;-63
2022/04/27 09:56:58;;;;;;;11.70;10.23;;;18.20;99.90;;;;;;5050884;28;20219;-63
2022/04/27 09:59:29;;;;;;;12.18;11.07;;;18.40;99.90;;;;;;5051026;28;20199;-63
2022/04/27 10:02:13;;;;;;;12.55;11.55;;;18.10;99.90;;;;;;5050198;28;20305;-63
2022/04/27 10:04:43;;;;;;;11.68;10.57;;;18.20;99.90;;;;;;4947941;28;20301;-70
2022/04/27 10:07:13;;;;;;;9.50;8.70;;;18.20;99.90;;;;;;4950413;28;20617;-69
2022/04/27 10:09:42;;;;;;;10.32;9.45;;;18.30;99.90;;;;;;4950320;28;20583;-70
2022/04/27 10:12:14;;;;;;;9.65;8.85;;;18.70;99.90;;;;;;4949276;28;20230;-70
2022/04/27 10:14:42;;;;;;;11.07;10.07;;;18.60;99.90;;;;;;4948326;29;20206;-70
2022/04/27 10:17:11;;;;;;;8.45;7.65;;;18.70;99.90;;;;;;4948876;29;20254;-70
2022/04/27 10:19:45;;;;;;;10.02;9.20;;;18.80;99.90;;;;;;4950070;28;20235;-69
2022/04/27 10:22:30;;;;;;;11.32;10.35;;;19.00;99.90;;;;;;4949407;28;20245;-70
2022/04/27 10:25:06;;;;;;;10.20;9.30;;;19.10;99.90;;;;;;4950344;28;20215;-70
2022/04/27 10:27:38;;;;;;;10.27;9.38;;;19.40;99.90;;;;;;4949928;28;20206;-70
2022/04/27 10:30:08;;;;;;;10.25;9.45;;;19.50;99.90;;;;;;4949990;29;20210;-70
2022/04/27 10:32:38;;;;;;;10.55;9.75;;;19.40;99.90;;;;;;4949365;28;20238;-69
2022/04/27 10:35:25;;;;;;;9.10;8.30;;;19.50;99.90;;;;;;4949699;29;20294;-70
2022/04/27 10:37:54;;;;;;;9.85;7.93;;;19.60;99.90;;;;;;4944242;28;20230;-69
2022/04/27 10:40:32;;;;;;;9.25;8.50;;;19.40;99.90;;;;;;4949764;28;20214;-69
2022/04/27 10:43:09;;;;;;;11.07;10.07;;;19.40;99.90;;;;;;4948960;28;20223;-69
2022/04/27 10:45:40;;;;;;;10.32;9.52;;;19.60;99.90;;;;;;4949367;28;20575;-69
2022/04/27 10:48:15;;;;;;;10.77;9.93;;;19.50;99.90;;;;;;4949645;28;20195;-70
2022/04/27 10:50:55;;;;;;;9.70;8.80;;;19.60;99.90;;;;;;4949837;29;20215;-70
2022/04/27 10:53:26;;;;;;;8.52;7.82;;;19.60;99.90;;;;;;4942906;28;20608;-69
2022/04/27 10:56:04;;;;;;;10.43;9.55;;;19.60;99.90;;;;;;4949460;29;20870;-71
2022/04/27 10:58:34;;;;;;;10.02;9.20;;;19.50;99.90;;;;;;4949464;28;20243;-70
2022/04/27 11:01:31;;;;;;;10.70;9.80;;;19.80;99.90;;;;;;4949536;29;20214;-70
2022/04/27 11:04:11;;;;;;;9.00;8.20;;;19.80;99.90;;;;;;4947284;28;20239;-70
2022/04/27 11:07:15;;;;;;;10.30;9.48;;;19.90;99.90;;;;;;4948344;29;20207;-70
2022/04/27 11:10:12;;;;;;;9.68;8.88;;;20.20;99.90;;;;;;4967282;28;20211;-70
2022/04/27 11:12:43;;;;;;;7.45;6.88;;;20.50;99.70;;;;;;4948416;28;20223;-71
2022/04/27 11:15:12;;;;;;;9.98;7.68;;;20.40;98.90;;;;;;4952780;28;20215;-70
2022/04/27 11:17:41;;;;;;;8.82;8.13;;;20.60;98.70;;;;;;4953034;28;20596;-71
2022/04/27 11:20:27;;;;;;;10.13;9.32;;;20.80;99.00;;;;;;4952860;29;20210;-70
2022/04/27 11:22:56;;;;;;;8.68;7.97;;;21.00;97.80;;;;;;4952071;28;20727;-70
2022/04/27 11:25:30;;;;;;;8.65;7.78;;;21.10;98.30;;;;;;4946160;29;20252;-71
2022/04/27 11:28:01;;;;;;;8.50;7.70;;;21.40;97.60;;;;;;4952542;28;20199;-70
2022/04/27 11:30:30;;;;;;;8.20;7.53;;;21.70;99.00;;;;;;4951663;28;20699;-71
2022/04/27 11:32:59;;;;;;;10.10;7.45;;;21.60;97.50;;;;;;4951775;28;20239;-70
2022/04/27 11:35:38;;;;;;;5.88;5.38;;;21.70;97.90;;;;;;4952236;28;20215;-70
2022/04/27 11:38:08;;;;;;;7.53;5.30;;;21.40;96.40;;;;;;4952386;29;20242;-70
2022/04/27 11:40:39;;;;;;;6.00;5.55;;;21.50;95.10;;;;;;4951222;28;20294;-70
2022/04/27 11:43:09;;;;;;;5.22;4.80;;;21.70;95.20;;;;;;4951560;28;20241;-70
2022/04/27 11:45:37;;;;;;;5.90;5.40;;;22.00;94.50;;;;;;4952055;28;20587;-70
2022/04/27 11:48:07;;;;;;;4.70;4.20;;;22.40;93.10;;;;;;4952512;28;20199;-70
2022/04/27 11:50:37;;;;;;;5.00;4.60;;;22.30;93.10;;;;;;4950955;28;20203;-70
2022/04/27 11:53:07;;;;;;;4.35;4.05;;;22.00;91.70;;;;;;4951521;28;20592;-70
2022/04/27 11:55:36;;;;;;;4.10;3.70;;;22.20;92.00;;;;;;4951749;28;20207;-70
2022/04/27 11:58:05;;;;;;;4.60;4.25;;;22.10;91.60;;;;;;4951930;28;20219;-70
2022/04/27 12:00:35;;;;;;;3.70;3.50;;;21.80;92.40;;;;;;4952099;29;20204;-70
2022/04/27 12:03:06;;;;;;;4.53;4.15;;;22.30;92.00;;;;;;4951090;28;20244;-70
2022/04/27 12:05:37;;;;;;;4.25;3.95;;;22.60;91.80;;;;;;4951888;29;20238;-71
2022/04/27 12:08:07;;;;;;;4.70;4.22;;;22.60;90.10;;;;;;4952061;29;20245;-70
2022/04/27 12:10:39;;;;;;;4.05;3.75;;;22.50;88.70;;;;;;4950860;28;20264;-70
2022/04/27 12:13:08;;;;;;;5.20;4.70;;;22.50;90.40;;;;;;4945217;28;20234;-70
2022/04/27 12:15:39;;;;;;;5.15;4.75;;;22.30;90.40;;;;;;4951509;29;20211;-71
2022/04/27 12:18:08;;;;;;;4.72;4.30;;;22.30;91.30;;;;;;4951741;29;20592;-69
2022/04/27 12:20:39;;;;;;;4.60;4.20;;;21.90;88.60;;;;;;4951904;28;20672;-70
2022/04/27 12:23:08;;;;;;;4.25;3.95;;;21.60;90.00;;;;;;4951166;28;20278;-70
2022/04/27 12:25:42;;;;;;;3.20;3.00;;;21.00;90.60;;;;;;4950956;28;20208;-69
2022/04/27 12:28:16;;;;;;;3.70;3.40;;;21.10;88.20;;;;;;4951240;29;20206;-70
2022/04/27 12:30:51;;;;;;;4.85;4.10;;;21.00;86.30;;;;;;4952423;28;20207;-70
2022/04/27 12:33:21;;;;;;;4.07;3.72;;;21.10;87.70;;;;;;4950898;28;20509;-68
2022/04/27 12:38:38;;;;;;;3.85;3.55;;;21.00;88.00;;;;;;4951215;28;20220;-70
2022/04/27 12:41:08;;;;;;;3.58;2.65;;;21.50;85.00;;;;;;4951245;28;20212;-70
2022/04/27 12:43:49;;;;;;;4.22;3.92;;;21.90;84.20;;;;;;4950587;28;20674;-70
2022/04/27 12:46:54;;;;;;;3.60;3.33;;;22.10;87.20;;;;;;4950523;29;20211;-70
2022/04/27 12:49:25;;;;;;;3.80;3.38;;;22.40;84.10;;;;;;4951570;29;20207;-70
2022/04/27 12:51:54;;;;;;;4.38;3.50;;;22.80;84.10;;;;;;4951597;28;20204;-70
2022/04/27 12:54:33;;;;;;;3.95;3.42;;;23.10;80.90;;;;;;4950910;28;20716;-70
2022/04/27 12:57:02;;;;;;;3.22;3.03;;;23.30;79.20;;;;;;4951117;28;20195;-69
2022/04/27 12:59:31;;;;;;;3.47;3.17;;;23.70;77.20;;;;;;4950996;29;20207;-68
2022/04/27 13:02:04;;;;;;;7.25;3.10;;;24.10;79.60;;;;;;4950629;28;20215;-69
2022/04/27 13:04:32;;;;;;;3.63;3.17;;;24.30;80.40;;;;;;4949571;28;20330;-70
2022/04/27 13:07:02;;;;;;;2.97;2.75;;;24.50;78.10;;;;;;4951306;28;20217;-68
2022/04/27 13:12:17;;;;;;;3.42;3.17;;;24.10;78.60;;;;;;4948825;28;20195;-69
2022/04/27 13:14:45;;;;;;;3.00;2.80;;;24.30;76.90;;;;;;4950530;29;20207;-70
2022/04/27 13:17:14;;;;;;;4.45;3.30;;;24.40;76.50;;;;;;4951118;28;20419;-69